Time;durP1;ratioP1;P1;durP2;ratioP2;P2;SDS_P1;SDS_P2;PMS_P1;PMS_P2;Temp;Humidity;BMP_temperature;BMP_pressure;BME280_temperature;BME280_humidity;BME280_pressure;Samples;Min_cycle;Max_cycle;Signal;HPM_P1;HPM_P2
2022/12/29 00:00:16;;;;;;;2.40;2.22;;;15.40;78.50;;;;;;4181274;28;19927;-64
2022/12/29 00:02:57;;;;;;;1.55;1.40;;;15.40;78.60;;;;;;4205660;28;20406;-64
2022/12/29 00:05:38;;;;;;;1.63;1.52;;;15.40;78.70;;;;;;4207886;28;20063;-64
2022/12/29 00:08:19;;;;;;;1.45;1.45;;;15.40;78.70;;;;;;4193817;28;20186;-64
2022/12/29 00:11:01;;;;;;;1.20;1.20;;;15.40;78.80;;;;;;4191933;28;20110;-64
2022/12/29 00:16:43;;;;;;;1.83;1.70;;;15.40;79.00;;;;;;4174521;28;20175;-64
2022/12/29 00:46:18;;;;;;;1.60;1.52;;;15.30;79.80;;;;;;4210410;28;20063;-64
2022/12/29 00:52:02;;;;;;;1.40;1.30;;;15.40;79.90;;;;;;4170085;28;20047;-64
2022/12/29 00:54:45;;;;;;;1.70;1.60;;;15.50;79.60;;;;;;4181759;28;20400;-64
2022/12/29 00:57:26;;;;;;;1.30;1.20;;;15.60;79.40;;;;;;4177725;28;20384;-63
2022/12/29 01:00:08;;;;;;;1.67;1.58;;;15.60;79.00;;;;;;4177250;28;20402;-64
2022/12/29 01:02:49;;;;;;;1.80;1.70;;;15.70;78.90;;;;;;4209792;28;20051;-64
2022/12/29 01:05:31;;;;;;;2.95;1.83;;;15.70;78.70;;;;;;4210023;28;20125;-64
2022/12/29 01:08:12;;;;;;;1.20;1.20;;;15.70;78.70;;;;;;4210822;28;20044;-64
2022/12/29 01:11:04;;;;;;;2.60;1.80;;;15.70;78.60;;;;;;4198070;28;20459;-64
2022/12/29 01:13:45;;;;;;;1.63;1.52;;;15.70;78.70;;;;;;4164704;28;20517;-63
2022/12/29 01:16:26;;;;;;;1.13;0.97;;;15.70;78.80;;;;;;4161714;28;20056;-64
2022/12/29 01:19:07;;;;;;;1.35;1.35;;;15.70;78.80;;;;;;4177502;28;20130;-64
2022/12/29 01:21:51;;;;;;;2.00;1.90;;;15.80;78.70;;;;;;4206350;28;20044;-64
2022/12/29 01:24:32;;;;;;;2.45;1.67;;;15.80;78.50;;;;;;4181456;28;20051;-64
2022/12/29 01:27:13;;;;;;;1.70;1.40;;;15.80;78.40;;;;;;4193976;28;20407;-64
2022/12/29 01:29:54;;;;;;;;;;;15.80;78.40;;;;;;4198600;28;20059;-64
2022/12/29 01:32:35;;;;;;;1.73;1.63;;;15.90;78.30;;;;;;4198415;28;20446;-64
2022/12/29 01:35:16;;;;;;;2.20;1.63;;;15.90;78.40;;;;;;4194354;28;20059;-64
2022/12/29 01:37:59;;;;;;;1.63;1.52;;;15.80;78.30;;;;;;4193997;28;20070;-64
2022/12/29 01:40:47;;;;;;;1.58;1.48;;;15.90;78.30;;;;;;4197970;28;20059;-64
2022/12/29 01:43:40;;;;;;;1.73;1.63;;;15.80;78.30;;;;;;4210389;28;20062;-64
2022/12/29 01:46:26;;;;;;;1.90;1.80;;;15.90;78.40;;;;;;4195526;28;20060;-64
2022/12/29 01:49:15;;;;;;;2.28;1.60;;;15.90;78.20;;;;;;4184770;28;20125;-63
2022/12/29 01:52:01;;;;;;;1.70;1.60;;;16.00;77.90;;;;;;4201060;28;20048;-64
2022/12/29 01:54:47;;;;;;;1.50;1.40;;;16.10;78.50;;;;;;4192380;28;20059;-64
2022/12/29 01:57:33;;;;;;;5.68;2.10;;;16.10;77.40;;;;;;4193513;28;20143;-64
2022/12/29 02:00:15;;;;;;;1.80;1.40;;;16.10;77.20;;;;;;4182350;28;20056;-63
2022/12/29 02:03:01;;;;;;;1.70;1.60;;;16.10;77.20;;;;;;4176675;28;20597;-64
2022/12/29 02:05:48;;;;;;;1.83;1.55;;;16.20;77.20;;;;;;4177072;28;20060;-64
2022/12/29 02:08:30;;;;;;;1.77;1.67;;;16.20;77.10;;;;;;4201381;28;20121;-64
2022/12/29 02:11:14;;;;;;;1.65;1.55;;;16.20;77.00;;;;;;4197641;28;20047;-63
2022/12/29 02:13:55;;;;;;;1.50;1.40;;;16.20;77.00;;;;;;4192994;28;20055;-64
2022/12/29 02:16:49;;;;;;;1.95;1.67;;;16.20;77.00;;;;;;4192817;28;20189;-64
2022/12/29 02:20:11;;;;;;;1.98;1.55;;;16.20;76.90;;;;;;4219163;28;20097;-64
2022/12/29 02:23:01;;;;;;;;;;;16.30;76.80;;;;;;4197534;28;20501;-64
2022/12/29 02:26:07;;;;;;;1.20;1.10;;;16.30;76.80;;;;;;4197102;28;20058;-64
2022/12/29 02:29:06;;;;;;;2.35;1.48;;;16.30;76.80;;;;;;4196807;28;20071;-64
2022/12/29 02:31:53;;;;;;;2.75;1.52;;;16.30;77.00;;;;;;4203358;28;20129;-64
2022/12/29 02:34:44;;;;;;;1.63;1.52;;;16.30;76.80;;;;;;4180320;28;20933;-64
2022/12/29 02:37:31;;;;;;;3.08;1.50;;;16.30;76.70;;;;;;4192836;28;20055;-64
2022/12/29 02:40:22;;;;;;;1.70;1.60;;;16.30;76.60;;;;;;4176159;28;20052;-65
2022/12/29 02:43:12;;;;;;;3.00;1.27;;;16.30;76.60;;;;;;4191538;28;22723;-64
2022/12/29 02:45:57;;;;;;;1.63;1.52;;;16.30;76.70;;;;;;4192795;28;20494;-64
2022/12/29 02:48:44;;;;;;;1.10;1.10;;;16.30;76.90;;;;;;4193582;28;20408;-64
2022/12/29 02:51:30;;;;;;;1.15;1.15;;;16.30;77.00;;;;;;4192370;28;20075;-63
2022/12/29 02:57:13;;;;;;;1.65;1.48;;;16.30;77.30;;;;;;4176667;28;20052;-63
2022/12/29 02:59:58;;;;;;;2.95;1.58;;;16.30;77.10;;;;;;4174566;28;20071;-63
2022/12/29 03:03:16;;;;;;;1.35;1.25;;;16.30;77.90;;;;;;4186096;28;20415;-63
2022/12/29 03:06:14;;;;;;;1.58;1.48;;;16.30;76.90;;;;;;4155154;28;20053;-63
2022/12/29 03:09:03;;;;;;;1.23;1.23;;;16.30;76.90;;;;;;4203103;28;20043;-65
2022/12/29 03:12:10;;;;;;;1.25;1.15;;;16.30;77.00;;;;;;4168227;28;20055;-63
2022/12/29 03:18:03;;;;;;;1.15;1.05;;;16.30;77.40;;;;;;4196307;28;20406;-63
2022/12/29 03:20:51;;;;;;;1.52;0.80;;;16.30;77.20;;;;;;4194898;28;20406;-63
2022/12/29 03:23:35;;;;;;;0.82;0.82;;;16.30;78.00;;;;;;4191455;28;20129;-63
2022/12/29 03:26:18;;;;;;;0.90;0.90;;;16.30;77.10;;;;;;4163325;28;20495;-63
2022/12/29 03:28:59;;;;;;;0.80;0.80;;;16.30;77.10;;;;;;4163341;28;20446;-64
2022/12/29 03:31:44;;;;;;;0.70;0.60;;;16.40;77.10;;;;;;4186033;28;20060;-64
2022/12/29 03:34:26;;;;;;;1.55;0.90;;;16.40;77.00;;;;;;4195506;28;20170;-64
2022/12/29 03:37:14;;;;;;;1.38;0.77;;;16.40;76.90;;;;;;4191402;28;20050;-63
2022/12/29 03:39:57;;;;;;;0.77;0.77;;;16.40;77.00;;;;;;4181954;28;20574;-63
2022/12/29 03:42:39;;;;;;;1.40;0.77;;;16.40;77.20;;;;;;4192176;28;20059;-63
2022/12/29 03:45:21;;;;;;;0.65;0.65;;;16.40;77.30;;;;;;4195280;28;20070;-63
2022/12/29 03:48:02;;;;;;;0.77;0.63;;;16.40;77.20;;;;;;4191129;28;20052;-63
2022/12/29 03:50:44;;;;;;;1.02;0.60;;;16.40;77.20;;;;;;4195898;28;20092;-64
2022/12/29 03:53:25;;;;;;;1.15;0.80;;;16.40;77.40;;;;;;4200973;28;20048;-64
2022/12/29 03:56:09;;;;;;;0.52;0.52;;;16.40;77.30;;;;;;4194989;28;20059;-63
2022/12/29 03:58:51;;;;;;;2.38;1.60;;;16.40;77.10;;;;;;4178640;28;20054;-60
2022/12/29 04:01:43;;;;;;;1.58;0.70;;;16.40;77.10;;;;;;4204996;28;20047;-60
2022/12/29 04:04:24;;;;;;;;;;;16.40;77.10;;;;;;4179268;28;20489;-60
2022/12/29 04:07:05;;;;;;;0.77;0.77;;;16.50;77.00;;;;;;4181591;28;19930;-60
2022/12/29 04:09:49;;;;;;;0.50;0.35;;;16.50;77.00;;;;;;4202297;28;20185;-60
2022/12/29 04:12:36;;;;;;;2.05;0.93;;;16.50;76.80;;;;;;4177996;28;20052;-60
2022/12/29 04:15:20;;;;;;;1.50;0.85;;;16.50;76.80;;;;;;4191680;28;20055;-60
2022/12/29 04:18:02;;;;;;;1.25;0.90;;;16.50;77.00;;;;;;4218388;28;20059;-60
2022/12/29 04:21:02;;;;;;;1.15;0.93;;;16.50;76.90;;;;;;4189796;28;20514;-60
2022/12/29 04:23:44;;;;;;;;;;;16.50;76.70;;;;;;4203054;28;20127;-60
2022/12/29 04:26:26;;;;;;;1.70;0.70;;;16.60;76.70;;;;;;4195644;28;20340;-60
2022/12/29 04:29:22;;;;;;;2.00;1.15;;;16.60;76.60;;;;;;4206849;28;20514;-60
2022/12/29 04:32:18;;;;;;;2.28;0.80;;;16.50;76.50;;;;;;4207722;28;20063;-60
2022/12/29 04:35:03;;;;;;;2.97;0.80;;;16.50;76.60;;;;;;4194451;28;20441;-60
2022/12/29 04:37:44;;;;;;;2.22;0.75;;;16.50;76.70;;;;;;4207930;28;20063;-60
2022/12/29 04:40:25;;;;;;;4.80;0.95;;;16.40;76.80;;;;;;4207293;28;20125;-60
2022/12/29 04:43:05;;;;;;;1.20;0.45;;;16.40;78.00;;;;;;4207253;28;20051;-60
2022/12/29 04:45:53;;;;;;;1.63;0.90;;;16.40;77.20;;;;;;4165499;28;20423;-60
2022/12/29 04:48:46;;;;;;;1.00;0.55;;;16.50;77.00;;;;;;4190201;28;20071;-59
2022/12/29 04:51:46;;;;;;;2.63;0.82;;;16.50;76.70;;;;;;4190778;28;20059;-60
2022/12/29 04:54:28;;;;;;;0.60;0.60;;;16.50;76.50;;;;;;4184412;28;20069;-59
2022/12/29 04:57:19;;;;;;;4.40;0.55;;;16.60;76.50;;;;;;4201734;28;20051;-60
2022/12/29 05:00:05;;;;;;;2.40;0.43;;;16.60;76.30;;;;;;4202004;28;20063;-59
2022/12/29 05:02:47;;;;;;;4.13;0.80;;;16.60;76.30;;;;;;4190527;28;20054;-59
2022/12/29 05:05:29;;;;;;;3.88;0.60;;;16.60;76.20;;;;;;4194843;28;20117;-60
2022/12/29 05:08:11;;;;;;;0.90;0.55;;;16.60;76.30;;;;;;4195288;28;20386;-60
2022/12/29 05:10:52;;;;;;;0.88;0.50;;;16.60;76.20;;;;;;4201223;28;20051;-60
2022/12/29 05:13:34;;;;;;;5.25;1.17;;;16.50;76.30;;;;;;4194353;28;20067;-63
2022/12/29 05:16:15;;;;;;;;;;;16.50;76.40;;;;;;4195356;28;20050;-63
2022/12/29 05:18:58;;;;;;;2.65;0.80;;;16.40;76.60;;;;;;4194024;28;19926;-63
2022/12/29 05:21:39;;;;;;;6.82;1.20;;;16.40;76.80;;;;;;4206090;28;20062;-63
2022/12/29 05:24:24;;;;;;;5.13;1.33;;;16.50;76.70;;;;;;4153475;28;20411;-63
2022/12/29 05:27:10;;;;;;;5.10;1.38;;;16.50;76.40;;;;;;4174886;28;20546;-63
2022/12/29 05:30:04;;;;;;;5.18;0.90;;;16.50;76.20;;;;;;4188710;28;20047;-63
2022/12/29 05:32:46;;;;;;;3.60;0.90;;;16.60;76.20;;;;;;4181948;28;20521;-60
2022/12/29 05:35:31;;;;;;;4.57;1.58;;;16.60;76.00;;;;;;4164675;28;20060;-64
2022/12/29 05:38:16;;;;;;;3.60;1.55;;;16.60;75.70;;;;;;4167259;28;20050;-62
2022/12/29 05:41:04;;;;;;;5.15;1.17;;;16.60;75.70;;;;;;4179657;28;20052;-63
2022/12/29 05:44:22;;;;;;;4.32;1.00;;;16.60;75.70;;;;;;4130151;28;20401;-61
2022/12/29 05:47:24;;;;;;;3.05;1.08;;;16.60;75.70;;;;;;4177099;28;20133;-60
2022/12/29 05:50:27;;;;;;;7.28;1.10;;;16.60;75.70;;;;;;4201611;28;20063;-62
2022/12/29 05:53:26;;;;;;;5.85;1.30;;;16.50;75.80;;;;;;4194940;28;20637;-60
2022/12/29 05:56:12;;;;;;;6.75;1.40;;;16.50;76.00;;;;;;4176391;28;20051;-60
2022/12/29 05:58:54;;;;;;;6.18;1.08;;;16.60;76.00;;;;;;4189356;28;20054;-60
2022/12/29 06:01:36;;;;;;;4.38;1.33;;;16.60;75.90;;;;;;4192215;28;20129;-60
2022/12/29 06:04:17;;;;;;;6.45;1.95;;;16.60;76.10;;;;;;4197240;28;20055;-60
2022/12/29 06:06:58;;;;;;;6.07;1.40;;;16.60;76.30;;;;;;4194257;28;20063;-60
2022/12/29 06:09:51;;;;;;;8.75;1.80;;;16.60;76.20;;;;;;4176407;28;20091;-61
2022/12/29 06:12:32;;;;;;;6.50;1.42;;;16.70;76.00;;;;;;4137859;28;20047;-60
2022/12/29 06:15:13;;;;;;;7.65;1.15;;;16.60;75.90;;;;;;4191522;28;20055;-60
2022/12/29 06:17:57;;;;;;;3.88;1.02;;;16.60;75.90;;;;;;4177201;28;20131;-60
2022/12/29 06:20:41;;;;;;;4.10;1.20;;;16.60;75.80;;;;;;4186654;28;20067;-60
2022/12/29 06:23:23;;;;;;;5.43;1.48;;;16.60;76.00;;;;;;4177676;28;20056;-60
2022/12/29 06:26:07;;;;;;;4.90;1.02;;;16.60;75.70;;;;;;4188078;28;20250;-64
2022/12/29 06:28:48;;;;;;;5.40;1.20;;;16.70;75.60;;;;;;4203262;28;20055;-63
2022/12/29 06:31:29;;;;;;;3.03;0.95;;;16.60;75.50;;;;;;4165116;28;20051;-60
2022/12/29 06:34:17;;;;;;;6.60;1.38;;;16.60;75.50;;;;;;4169989;28;20502;-60
2022/12/29 06:36:58;;;;;;;7.63;1.85;;;16.60;76.30;;;;;;4184861;28;20056;-63
2022/12/29 06:39:39;;;;;;;4.13;1.20;;;16.60;75.50;;;;;;4154957;28;20051;-60
2022/12/29 06:42:31;;;;;;;4.88;0.95;;;16.60;75.40;;;;;;4172778;28;20085;-63
2022/12/29 06:45:30;;;;;;;3.45;1.48;;;16.50;75.60;;;;;;4201721;28;20100;-64
2022/12/29 06:48:11;;;;;;;6.13;1.30;;;16.60;75.60;;;;;;4184909;28;20064;-64
2022/12/29 06:50:52;;;;;;;4.00;1.37;;;16.60;75.30;;;;;;4154062;28;20059;-64
2022/12/29 06:53:37;;;;;;;4.55;0.95;;;16.60;75.10;;;;;;4150652;28;20555;-64
2022/12/29 06:56:17;;;;;;;10.93;2.25;;;16.60;74.90;;;;;;4172312;28;20055;-64
2022/12/29 06:59:00;;;;;;;8.88;1.67;;;16.60;74.90;;;;;;4190719;28;20059;-64
2022/12/29 07:01:43;;;;;;;3.53;1.20;;;16.60;74.90;;;;;;4174649;28;20055;-64
2022/12/29 07:04:24;;;;;;;5.28;1.80;;;16.50;75.00;;;;;;4174298;28;20056;-62
2022/12/29 07:07:05;;;;;;;6.22;1.42;;;16.50;75.30;;;;;;4206969;28;20071;-62
2022/12/29 07:09:46;;;;;;;7.43;1.53;;;16.40;75.40;;;;;;4188867;28;20189;-62
2022/12/29 07:12:27;;;;;;;9.40;1.65;;;16.50;75.30;;;;;;4175116;28;20306;-62
2022/12/29 07:15:10;;;;;;;7.97;1.77;;;16.50;75.10;;;;;;4188307;28;20097;-62
2022/12/29 07:17:51;;;;;;;7.85;1.52;;;16.50;74.70;;;;;;4191007;28;20479;-62
2022/12/29 07:20:32;;;;;;;9.07;1.90;;;16.50;74.60;;;;;;4190983;28;20058;-62
2022/12/29 07:23:14;;;;;;;5.75;1.15;;;16.50;74.40;;;;;;4192594;28;20181;-62
2022/12/29 07:26:01;;;;;;;11.55;1.92;;;16.50;74.40;;;;;;4176406;28;20164;-63
2022/12/29 07:28:46;;;;;;;11.32;1.77;;;16.40;74.40;;;;;;4199568;28;20101;-62
2022/12/29 07:31:30;;;;;;;5.80;1.55;;;16.40;74.30;;;;;;4144505;28;20060;-61
2022/12/29 07:34:11;;;;;;;6.57;1.88;;;16.30;74.30;;;;;;4164617;28;20116;-62
2022/12/29 07:36:54;;;;;;;6.32;1.95;;;16.30;74.60;;;;;;4172336;28;20051;-62
2022/12/29 07:39:37;;;;;;;9.27;1.67;;;16.30;74.90;;;;;;4156431;28;20052;-62
2022/12/29 07:42:21;;;;;;;6.40;1.52;;;16.30;75.00;;;;;;4158463;28;20403;-62
2022/12/29 07:45:10;;;;;;;6.97;1.65;;;16.30;74.60;;;;;;4162319;28;20513;-62
2022/12/29 07:48:18;;;;;;;6.07;1.33;;;16.30;74.20;;;;;;4166470;28;20453;-60
2022/12/29 07:50:59;;;;;;;9.20;1.90;;;16.40;73.80;;;;;;4181869;28;20060;-60
2022/12/29 07:53:41;;;;;;;7.47;1.50;;;16.40;73.90;;;;;;4172091;28;20079;-60
2022/12/29 07:56:22;;;;;;;4.45;1.80;;;16.30;73.80;;;;;;4174441;28;20048;-60
2022/12/29 07:59:05;;;;;;;6.25;1.63;;;16.30;74.00;;;;;;4172772;28;20070;-60
2022/12/29 08:01:49;;;;;;;6.47;1.40;;;16.40;73.90;;;;;;4180029;28;20060;-60
2022/12/29 08:04:31;;;;;;;10.48;1.90;;;16.40;73.40;;;;;;4181063;28;20059;-60
2022/12/29 08:07:12;;;;;;;4.65;1.42;;;16.50;73.00;;;;;;4175382;28;20051;-60
2022/12/29 08:09:53;;;;;;;6.82;1.27;;;16.50;72.70;;;;;;4172975;28;20141;-60
2022/12/29 08:12:34;;;;;;;4.95;1.55;;;16.60;72.50;;;;;;4177218;28;20064;-60
2022/12/29 08:15:15;;;;;;;7.20;1.88;;;16.60;72.40;;;;;;4175736;28;20067;-60
2022/12/29 08:17:56;;;;;;;7.38;1.52;;;16.50;72.20;;;;;;4161061;28;20056;-61
2022/12/29 08:20:38;;;;;;;7.65;1.73;;;16.60;72.30;;;;;;4175719;28;20056;-62
2022/12/29 08:23:19;;;;;;;3.45;1.15;;;16.60;72.20;;;;;;4180491;28;20133;-62
2022/12/29 08:26:02;;;;;;;6.95;1.55;;;16.50;72.10;;;;;;4149561;28;20178;-61
2022/12/29 08:28:43;;;;;;;8.00;2.17;;;16.50;72.20;;;;;;4177262;28;20502;-61
2022/12/29 08:31:24;;;;;;;3.90;1.38;;;16.40;72.20;;;;;;4182549;28;20112;-61
2022/12/29 08:34:05;;;;;;;;;;;16.40;72.40;;;;;;4182246;28;20052;-62
2022/12/29 08:36:48;;;;;;;9.82;1.95;;;16.30;72.60;;;;;;4180702;28;19978;-63
2022/12/29 08:39:29;;;;;;;7.07;1.48;;;16.30;72.90;;;;;;4178408;28;20060;-63
2022/12/29 08:42:10;;;;;;;12.05;2.95;;;16.30;72.70;;;;;;4176338;28;20063;-60
2022/12/29 08:44:51;;;;;;;12.38;2.30;;;16.40;72.60;;;;;;4183051;28;20210;-60
2022/12/29 08:47:32;;;;;;;7.13;1.80;;;16.40;72.40;;;;;;4178329;28;20183;-60
2022/12/29 08:50:13;;;;;;;11.43;1.90;;;16.40;72.30;;;;;;4176611;28;20110;-62
2022/12/29 08:52:56;;;;;;;7.00;1.73;;;16.40;72.30;;;;;;4181621;28;20063;-63
2022/12/29 08:55:37;;;;;;;7.70;1.83;;;16.30;72.40;;;;;;4176670;28;20434;-61
2022/12/29 08:58:18;;;;;;;8.48;2.65;;;16.30;72.60;;;;;;4177605;28;20093;-63
2022/12/29 09:00:59;;;;;;;9.03;3.03;;;16.20;72.80;;;;;;4176651;28;20051;-60
2022/12/29 09:03:40;;;;;;;6.93;1.85;;;16.20;72.90;;;;;;4185221;28;21408;-61
2022/12/29 09:06:41;;;;;;;12.50;2.03;;;16.10;73.20;;;;;;4175275;28;20182;-61
2022/12/29 09:09:23;;;;;;;14.02;2.17;;;16.10;73.40;;;;;;4191197;28;20052;-60
2022/12/29 09:12:05;;;;;;;13.05;2.22;;;16.10;73.50;;;;;;4191422;28;20047;-60
2022/12/29 09:14:47;;;;;;;9.70;2.13;;;16.00;73.80;;;;;;4175598;28;20055;-61
2022/12/29 09:17:44;;;;;;;;;;;16.00;74.90;;;;;;4179850;28;20407;-61
2022/12/29 09:20:25;;;;;;;12.43;2.22;;;15.90;74.20;;;;;;4186680;28;19936;-60
2022/12/29 09:23:07;;;;;;;8.63;2.15;;;15.90;74.40;;;;;;4177769;28;20586;-61
2022/12/29 09:25:49;;;;;;;12.45;2.80;;;15.80;74.60;;;;;;4191199;28;20345;-61
2022/12/29 09:28:31;;;;;;;7.43;2.53;;;15.80;74.80;;;;;;4181050;28;20040;-61
2022/12/29 09:31:12;;;;;;;8.32;1.55;;;15.70;75.00;;;;;;4190332;28;20508;-61
2022/12/29 09:33:53;;;;;;;9.57;1.92;;;15.70;75.40;;;;;;4174649;28;20122;-61
2022/12/29 09:36:34;;;;;;;8.35;2.00;;;15.70;75.40;;;;;;4188058;28;20064;-60
2022/12/29 09:39:15;;;;;;;10.25;2.28;;;15.80;75.50;;;;;;4182280;28;20055;-60
2022/12/29 09:42:05;;;;;;;12.07;2.40;;;15.80;75.70;;;;;;4174915;28;20082;-61
2022/12/29 09:44:57;;;;;;;6.90;1.27;;;15.80;75.70;;;;;;4174758;28;20495;-60
2022/12/29 09:47:38;;;;;;;13.73;2.55;;;15.80;75.90;;;;;;4185085;28;20055;-61
2022/12/29 09:50:24;;;;;;;10.73;2.35;;;15.80;76.10;;;;;;4182694;28;20284;-61
2022/12/29 09:53:13;;;;;;;8.32;2.05;;;15.80;76.10;;;;;;4182908;28;20056;-61
2022/12/29 09:55:56;;;;;;;5.70;1.63;;;16.00;76.50;;;;;;4174676;28;20064;-61
2022/12/29 09:58:43;;;;;;;11.07;2.63;;;16.00;76.50;;;;;;4179101;28;20182;-60
2022/12/29 10:01:31;;;;;;;6.65;2.17;;;16.10;76.20;;;;;;4185953;28;20503;-59
2022/12/29 10:04:12;;;;;;;9.15;2.35;;;16.10;76.30;;;;;;4187697;28;20061;-61
2022/12/29 10:06:58;;;;;;;8.20;1.85;;;16.10;76.80;;;;;;4192049;28;20048;-59
2022/12/29 10:10:10;;;;;;;10.00;2.22;;;16.20;77.50;;;;;;4202511;28;20043;-60
2022/12/29 10:13:02;;;;;;;;;;;16.20;77.80;;;;;;4189365;28;20499;-60
2022/12/29 10:15:55;;;;;;;6.95;1.75;;;16.30;77.80;;;;;;4208971;28;20037;-60
2022/12/29 10:19:06;;;;;;;7.68;1.23;;;16.30;77.70;;;;;;4209336;28;20054;-60
2022/12/29 10:21:57;;;;;;;6.07;1.88;;;16.30;77.60;;;;;;4207003;28;20509;-60
2022/12/29 10:24:40;;;;;;;7.45;1.90;;;16.30;77.60;;;;;;4176102;28;20063;-61
2022/12/29 10:27:22;;;;;;;7.53;1.60;;;16.30;77.60;;;;;;4176372;28;20047;-60
2022/12/29 10:30:04;;;;;;;7.90;2.25;;;16.40;77.60;;;;;;4176596;28;20051;-61
2022/12/29 10:32:51;;;;;;;7.70;1.80;;;16.40;77.40;;;;;;4176299;28;20067;-61
2022/12/29 10:35:38;;;;;;;4.82;1.85;;;16.40;77.30;;;;;;4180777;28;20067;-61
2022/12/29 10:38:27;;;;;;;8.05;1.88;;;16.40;77.40;;;;;;4193257;28;20063;-60
2022/12/29 10:41:16;;;;;;;5.88;1.45;;;16.50;77.00;;;;;;4193166;28;20063;-60
2022/12/29 10:43:58;;;;;;;9.52;1.60;;;16.50;76.70;;;;;;4176195;28;20089;-60
2022/12/29 10:46:40;;;;;;;8.88;1.75;;;16.60;76.70;;;;;;4163606;28;20506;-61
2022/12/29 10:49:25;;;;;;;5.18;1.75;;;16.60;76.70;;;;;;4193741;28;20052;-61
2022/12/29 10:52:08;;;;;;;9.57;1.90;;;16.50;76.70;;;;;;4192687;28;20864;-60
2022/12/29 10:54:55;;;;;;;4.60;1.88;;;16.60;76.80;;;;;;4192672;28;20529;-61
2022/12/29 10:57:39;;;;;;;5.88;1.40;;;16.60;76.90;;;;;;4192740;28;20058;-60
2022/12/29 11:00:22;;;;;;;6.97;1.95;;;16.60;77.10;;;;;;4192476;28;20461;-60
2022/12/29 11:03:40;;;;;;;7.97;1.88;;;16.50;77.40;;;;;;4191973;28;20047;-61
2022/12/29 11:06:27;;;;;;;4.68;1.40;;;16.50;77.30;;;;;;4192368;28;20529;-60
2022/12/29 11:09:13;;;;;;;7.47;2.25;;;16.40;77.90;;;;;;4192266;28;20051;-61
2022/12/29 11:11:54;;;;;;;6.80;1.65;;;16.50;78.10;;;;;;4179779;28;20052;-60
2022/12/29 11:14:35;;;;;;;5.78;2.05;;;16.60;78.00;;;;;;4192276;28;20055;-60
2022/12/29 11:17:18;;;;;;;7.88;2.30;;;16.60;78.00;;;;;;4175552;28;20049;-61
2022/12/29 11:19:59;;;;;;;;;;;16.70;78.00;;;;;;4175994;28;20052;-61
2022/12/29 11:22:45;;;;;;;9.43;2.45;;;16.80;77.70;;;;;;4188243;28;20011;-61
2022/12/29 11:25:26;;;;;;;8.80;2.33;;;16.80;77.20;;;;;;4192547;28;20075;-60
2022/12/29 11:28:17;;;;;;;6.80;1.85;;;16.80;78.20;;;;;;4192238;28;20055;-61
2022/12/29 11:31:02;;;;;;;5.78;2.08;;;16.80;77.40;;;;;;4180581;28;20573;-61
2022/12/29 11:33:45;;;;;;;10.18;2.50;;;16.80;77.50;;;;;;4191291;28;20133;-61
2022/12/29 11:36:27;;;;;;;9.70;2.60;;;16.80;77.60;;;;;;4192008;28;20055;-61
2022/12/29 11:39:37;;;;;;;6.57;2.75;;;16.70;77.80;;;;;;4192197;28;20063;-60
2022/12/29 11:42:23;;;;;;;16.13;3.60;;;16.70;78.00;;;;;;4191229;28;20090;-60
2022/12/29 11:45:08;;;;;;;14.73;2.88;;;16.70;78.40;;;;;;4191686;28;20198;-60
2022/12/29 11:47:54;;;;;;;11.45;3.38;;;16.70;78.20;;;;;;4191824;28;20159;-60
2022/12/29 11:50:39;;;;;;;12.80;2.80;;;16.80;78.10;;;;;;4191669;28;20193;-60
2022/12/29 11:53:24;;;;;;;8.50;2.25;;;16.80;78.00;;;;;;4191276;28;20051;-61
2022/12/29 11:56:11;;;;;;;12.93;2.67;;;16.80;78.00;;;;;;4191186;28;20121;-61
2022/12/29 11:58:53;;;;;;;9.48;2.15;;;16.80;78.10;;;;;;4191458;28;20518;-60
2022/12/29 12:01:35;;;;;;;;;;;16.80;79.20;;;;;;4191571;28;20609;-60
2022/12/29 12:04:19;;;;;;;7.93;2.90;;;16.80;78.60;;;;;;4191396;28;19944;-60
2022/12/29 12:07:05;;;;;;;9.50;2.75;;;16.80;78.40;;;;;;4178336;28;20047;-60
2022/12/29 12:09:51;;;;;;;15.60;2.88;;;16.90;78.30;;;;;;4189854;28;20093;-60
2022/12/29 12:12:39;;;;;;;11.15;2.45;;;16.90;78.20;;;;;;4177423;28;20051;-61
2022/12/29 12:15:25;;;;;;;13.43;3.33;;;16.90;78.40;;;;;;4202090;28;20044;-61
2022/12/29 12:18:12;;;;;;;14.20;2.85;;;16.80;78.50;;;;;;4190224;28;20419;-61
2022/12/29 12:20:58;;;;;;;11.35;3.00;;;16.80;78.70;;;;;;4190896;28;20074;-61
2022/12/29 12:23:54;;;;;;;13.68;2.80;;;16.80;78.80;;;;;;4191694;28;20060;-61
2022/12/29 12:26:38;;;;;;;11.75;2.63;;;16.80;78.30;;;;;;4191074;28;20415;-61
2022/12/29 12:29:26;;;;;;;8.95;2.42;;;16.80;78.50;;;;;;4178165;28;20059;-60
2022/12/29 12:32:16;;;;;;;12.98;2.40;;;16.80;78.60;;;;;;4178770;28;20097;-60
2022/12/29 12:34:57;;;;;;;9.05;1.80;;;16.80;78.80;;;;;;4191703;28;20074;-62
2022/12/29 12:37:52;;;;;;;13.68;3.00;;;16.70;79.00;;;;;;4193424;28;20514;-63
2022/12/29 12:41:01;;;;;;;12.63;3.58;;;16.70;79.40;;;;;;4192639;28;20135;-62
2022/12/29 12:43:47;;;;;;;9.27;2.90;;;16.70;80.40;;;;;;4198347;28;20534;-60
2022/12/29 12:47:03;;;;;;;15.35;3.22;;;16.70;79.70;;;;;;4193225;28;20174;-61
2022/12/29 12:50:09;;;;;;;8.20;2.70;;;16.70;79.40;;;;;;4193153;28;20486;-61
2022/12/29 12:53:18;;;;;;;11.70;2.63;;;16.70;79.60;;;;;;4191900;28;20079;-61
2022/12/29 12:56:27;;;;;;;11.60;2.85;;;16.70;79.30;;;;;;4180595;28;20052;-60
2022/12/29 12:59:22;;;;;;;9.35;2.20;;;16.80;79.30;;;;;;4190734;28;20060;-59
2022/12/29 13:02:16;;;;;;;12.10;2.40;;;16.80;79.40;;;;;;4164210;28;20071;-61
2022/12/29 13:05:10;;;;;;;9.00;2.50;;;16.80;79.10;;;;;;4176903;28;20403;-60
2022/12/29 13:08:02;;;;;;;7.63;2.47;;;16.80;78.70;;;;;;4209438;28;20055;-60
2022/12/29 13:10:51;;;;;;;12.55;2.17;;;16.80;78.80;;;;;;4204715;28;20047;-59
2022/12/29 13:13:46;;;;;;;11.32;2.13;;;16.80;79.10;;;;;;4190047;28;20503;-59
2022/12/29 13:16:35;;;;;;;11.65;2.22;;;16.80;78.80;;;;;;4194287;28;20063;-59
2022/12/29 13:19:25;;;;;;;10.30;1.67;;;16.80;78.50;;;;;;4192741;28;20047;-59
2022/12/29 13:22:14;;;;;;;7.75;1.85;;;16.80;78.60;;;;;;4193632;28;20117;-63
2022/12/29 13:25:11;;;;;;;9.80;2.33;;;16.70;79.00;;;;;;4181169;28;20628;-59
2022/12/29 13:27:56;;;;;;;7.75;2.25;;;16.70;79.10;;;;;;4176624;28;20059;-59
2022/12/29 13:30:45;;;;;;;5.47;1.42;;;16.70;79.50;;;;;;4153974;28;20106;-59
2022/12/29 13:33:35;;;;;;;8.15;1.92;;;16.70;79.70;;;;;;4180855;28;20125;-59
2022/12/29 13:36:23;;;;;;;6.55;2.10;;;16.70;79.50;;;;;;4182163;28;20178;-61
2022/12/29 13:39:12;;;;;;;12.15;2.33;;;16.70;79.20;;;;;;4177485;28;20111;-59
2022/12/29 13:41:59;;;;;;;9.32;1.75;;;16.70;79.30;;;;;;4176906;28;20068;-59
2022/12/29 13:44:45;;;;;;;10.10;2.03;;;16.70;79.70;;;;;;4192966;28;20051;-59
2022/12/29 13:47:30;;;;;;;8.10;1.90;;;16.60;79.60;;;;;;4210441;28;20101;-61
2022/12/29 13:50:18;;;;;;;5.75;1.95;;;16.60;79.70;;;;;;4210474;28;20071;-59
2022/12/29 13:53:07;;;;;;;7.68;2.58;;;16.50;79.90;;;;;;4210336;28;20052;-59
2022/12/29 13:55:55;;;;;;;6.72;2.17;;;16.40;79.80;;;;;;4207364;28;20404;-59
2022/12/29 13:58:42;;;;;;;4.20;1.40;;;16.40;80.30;;;;;;4193371;28;20051;-59
2022/12/29 14:01:29;;;;;;;8.88;2.00;;;16.30;80.70;;;;;;4180919;28;20047;-60
2022/12/29 14:04:13;;;;;;;8.60;1.67;;;16.20;80.90;;;;;;4194982;28;20815;-60
2022/12/29 14:07:03;;;;;;;6.70;1.67;;;16.20;81.00;;;;;;4210040;28;20054;-60
2022/12/29 14:09:48;;;;;;;4.68;1.25;;;16.10;80.90;;;;;;4209718;28;20097;-60
2022/12/29 14:12:37;;;;;;;10.73;1.73;;;16.10;81.40;;;;;;4209958;28;20403;-60
2022/12/29 14:15:24;;;;;;;10.07;1.80;;;16.10;82.10;;;;;;4198206;28;20052;-61
2022/12/29 14:18:17;;;;;;;11.13;2.40;;;16.00;82.30;;;;;;4193379;28;20055;-60
2022/12/29 14:21:00;;;;;;;8.50;2.15;;;15.90;82.10;;;;;;4192738;28;20047;-60
2022/12/29 14:23:43;;;;;;;10.35;1.77;;;15.90;82.50;;;;;;4192670;28;20059;-60
2022/12/29 14:26:36;;;;;;;9.40;1.85;;;15.80;82.50;;;;;;4195271;28;20050;-60
2022/12/29 14:29:45;;;;;;;7.20;1.38;;;15.80;82.50;;;;;;4219817;28;20061;-61
2022/12/29 14:32:41;;;;;;;11.45;2.45;;;15.80;82.20;;;;;;4190130;28;20620;-61
2022/12/29 14:35:42;;;;;;;6.43;1.52;;;15.80;81.80;;;;;;4191525;28;20052;-60
2022/12/29 14:38:27;;;;;;;5.30;1.75;;;15.80;82.00;;;;;;4191569;28;20137;-59
2022/12/29 14:41:31;;;;;;;9.70;2.13;;;15.70;82.30;;;;;;4191708;28;20129;-61
2022/12/29 14:44:19;;;;;;;8.82;1.98;;;15.70;82.00;;;;;;4195598;28;20051;-60
2022/12/29 14:47:05;;;;;;;7.15;1.73;;;15.70;82.10;;;;;;4191797;28;20048;-61
2022/12/29 14:49:47;;;;;;;7.65;2.05;;;15.70;81.80;;;;;;4182988;28;20201;-62
2022/12/29 14:52:30;;;;;;;7.68;2.10;;;15.70;81.90;;;;;;4191108;28;20142;-62
2022/12/29 14:55:32;;;;;;;11.82;2.20;;;15.60;81.60;;;;;;4193961;28;20125;-62
2022/12/29 14:58:18;;;;;;;7.68;1.90;;;15.60;81.00;;;;;;4186558;28;20172;-62
2022/12/29 15:01:01;;;;;;;5.35;1.35;;;15.60;81.30;;;;;;4192074;28;20058;-62
2022/12/29 15:03:46;;;;;;;7.80;2.53;;;15.50;81.30;;;;;;4192638;28;20186;-62
2022/12/29 15:06:31;;;;;;;9.80;2.20;;;15.50;81.60;;;;;;4192245;28;20129;-62